< Typhoon 196738 1967 Season Typhoon 196801 >
Typhoon 196739 (IVY)
General InformationTrack Information on Google Maps || Disaster Info.ResourceGoogle EarthGE AnimationAtom FeedGeoJSON
Detalied Best Track (Time Zone = UTC)
Year Month Day Hour Lat. Long. Pressure (hPa) Wind (kt) Class Image Chart
1967 12 16 06 10.0 136.0 1006 0 2 -- Chart
1967 12 16 12 10.8 135.3 1006 0 2 -- Chart
1967 12 16 18 11.3 134.8 1004 0 2 -- Chart
1967 12 17 00 11.8 134.3 998 0 9 -- Chart
1967 12 17 06 12.2 134.0 992 0 9 -- Chart
1967 12 17 12 12.3 133.7 990 0 9 -- Chart
1967 12 17 18 12.5 133.6 984 0 9 -- Chart
1967 12 18 00 12.6 133.6 980 0 9 -- Chart
1967 12 18 06 12.8 133.7 984 0 9 -- Chart
1967 12 18 12 13.2 134.3 984 0 9 -- Chart
1967 12 18 18 13.4 135.0 994 0 9 -- Chart
1967 12 19 00 13.1 135.6 1000 0 9 -- Chart
1967 12 19 06 13.0 135.6 1002 0 2 -- Chart
1967 12 19 12 13.0 136.0 1004 0 2 -- Chart
1967 12 19 18 13.0 137.0 1004 0 2 -- Chart
1967 12 20 00 13.0 137.0 1006 0 2 -- Chart
1967 12 20 06 13.0 137.0 1006 0 2 -- Chart
1967 12 20 12 13.0 137.0 1008 0 2 -- Chart
1967 12 20 18 12.5 136.5 1008 0 2 -- Chart
1967 12 21 00 12.0 136.0 1010 0 2 -- Chart
1967 12 21 06 11.5 135.5 1008 0 2 -- Chart
Japan Meteorological Agency Best Track Data | Correction Date : 1989-06-01
< Typhoon 196738 1967 Season Typhoon 196801 >

Help